createdAt,value
2019-04-27T00:01:55.132Z,1.40
2019-04-27T00:04:32.868Z,1.27
2019-04-27T00:07:03.061Z,1.73
2019-04-27T00:09:50.309Z,1.90
2019-04-27T00:12:16.447Z,1.00
2019-04-27T00:14:48.253Z,1.10
2019-04-27T00:17:20.981Z,1.40
2019-04-27T00:19:53.445Z,1.30
2019-04-27T00:22:29.529Z,1.53
2019-04-27T00:24:58.021Z,1.30
2019-04-27T00:27:26.415Z,1.30
2019-04-27T00:29:54.796Z,1.10
2019-04-27T00:32:23.212Z,1.00
2019-04-27T00:34:53.165Z,2.40
2019-04-27T00:37:33.876Z,1.20
2019-04-27T00:40:04.077Z,1.00
2019-04-27T00:42:33.370Z,1.73
2019-04-27T00:45:02.964Z,0.90
2019-04-27T00:47:34.898Z,1.10
2019-04-27T00:50:03.855Z,3.00
2019-04-27T00:52:34.689Z,1.20
2019-04-27T00:55:03.148Z,1.43
2019-04-27T00:57:45.015Z,1.60
2019-04-27T01:00:27.098Z,1.30
2019-04-27T01:03:00.495Z,1.73
2019-04-27T01:05:30.355Z,1.90
2019-04-27T01:07:58.746Z,1.87
2019-04-27T01:10:27.233Z,1.80
2019-04-27T01:12:55.616Z,1.70
2019-04-27T01:15:24.437Z,1.37
2019-04-27T01:17:52.847Z,1.33
2019-04-27T01:20:21.316Z,1.17
2019-04-27T01:22:49.982Z,1.40
2019-04-27T01:25:19.043Z,1.40
2019-04-27T01:27:51.996Z,1.40
2019-04-27T01:30:34.456Z,4.35
2019-04-27T01:33:02.833Z,1.90
2019-04-27T01:35:31.229Z,1.60
2019-04-27T01:38:00.033Z,1.83
2019-04-27T01:40:29.493Z,1.70
2019-04-27T01:42:58.844Z,1.87
2019-04-27T01:45:29.032Z,1.50
2019-04-27T01:47:57.504Z,1.40
2019-04-27T01:50:25.899Z,1.73
2019-04-27T01:52:54.624Z,4.07
2019-04-27T01:55:23.006Z,1.40
2019-04-27T01:57:51.387Z,1.57
2019-04-27T02:00:30.242Z,1.40
2019-04-27T02:03:00.267Z,2.07
2019-04-27T02:05:33.280Z,2.07
2019-04-27T02:08:01.758Z,1.70
2019-04-27T02:10:30.212Z,1.60
2019-04-27T02:12:58.812Z,1.70
2019-04-27T02:15:27.171Z,1.70
2019-04-27T02:17:55.553Z,1.57
2019-04-27T02:20:23.939Z,1.40
2019-04-27T02:22:52.350Z,1.50
2019-04-27T02:25:21.198Z,1.70
2019-04-27T02:27:51.216Z,2.20
2019-04-27T02:30:21.448Z,1.70
2019-04-27T02:33:12.165Z,1.57
2019-04-27T02:35:41.946Z,1.70
2019-04-27T02:38:10.128Z,4.57
2019-04-27T02:40:59.572Z,3.17
2019-04-27T02:43:45.399Z,2.83
2019-04-27T02:46:13.884Z,2.90
2019-04-27T02:48:55.489Z,1.93
2019-04-27T02:51:17.061Z,2.30
2019-04-27T02:53:55.896Z,1.73
2019-04-27T02:56:24.741Z,1.90
2019-04-27T02:58:53.196Z,1.87
2019-04-27T03:01:23.102Z,2.10
2019-04-27T03:03:51.570Z,1.63
2019-04-27T03:06:20.131Z,1.70
2019-04-27T03:08:52.841Z,1.70
2019-04-27T03:11:20.515Z,1.60
2019-04-27T03:13:52.901Z,2.30
2019-04-27T03:16:39.617Z,3.60
2019-04-27T03:19:18.224Z,2.00
2019-04-27T03:22:02.144Z,2.20
2019-04-27T03:24:49.743Z,2.30
2019-04-27T03:27:20.328Z,3.03
2019-04-27T03:29:49.859Z,3.10
2019-04-27T03:32:22.626Z,2.63
2019-04-27T03:34:52.377Z,6.80
2019-04-27T03:37:20.274Z,3.30
2019-04-27T03:39:49.861Z,3.30
2019-04-27T03:42:20.721Z,3.20
2019-04-27T03:44:50.302Z,2.80
2019-04-27T03:47:19.768Z,2.27
2019-04-27T03:49:50.607Z,2.20
2019-04-27T03:52:26.519Z,2.13
2019-04-27T03:55:10.302Z,5.53
2019-04-27T03:57:40.550Z,4.37
2019-04-27T04:00:16.594Z,3.23
2019-04-27T04:02:45.046Z,4.83
2019-04-27T04:05:13.725Z,6.33
2019-04-27T04:07:42.209Z,2.90
2019-04-27T04:10:11.101Z,4.60
2019-04-27T04:12:43.821Z,3.37
2019-04-27T04:15:14.059Z,2.37
2019-04-27T04:17:42.460Z,3.53
2019-04-27T04:20:11.089Z,2.90
2019-04-27T04:22:40.405Z,2.60
2019-04-27T04:25:10.736Z,5.10
2019-04-27T04:27:42.349Z,2.60
2019-04-27T04:30:12.278Z,4.80
2019-04-27T04:32:40.056Z,2.83
2019-04-27T04:35:21.387Z,2.00
2019-04-27T04:37:52.987Z,4.90
2019-04-27T04:40:23.201Z,2.63
2019-04-27T04:42:56.159Z,2.10
2019-04-27T04:45:39.304Z,3.27
2019-04-27T04:48:10.075Z,2.77
2019-04-27T04:50:39.604Z,6.10
2019-04-27T04:53:12.435Z,3.37
2019-04-27T04:55:39.291Z,2.98
2019-04-27T04:58:09.372Z,2.73
2019-04-27T05:00:40.083Z,2.70
2019-04-27T05:03:09.379Z,2.20
2019-04-27T05:05:41.109Z,1.93
2019-04-27T05:08:09.079Z,2.97
2019-04-27T05:10:39.529Z,2.23
2019-04-27T05:13:09.315Z,3.63
2019-04-27T05:15:39.413Z,4.27
2019-04-27T05:18:09.169Z,2.50
2019-04-27T05:20:39.760Z,3.13
2019-04-27T05:23:09.629Z,3.20
2019-04-27T05:25:39.081Z,2.53
2019-04-27T05:28:09.563Z,2.90
2019-04-27T05:30:39.083Z,2.33
2019-04-27T05:33:09.120Z,5.33
2019-04-27T05:35:40.606Z,20.33
2019-04-27T05:38:11.016Z,4.77
2019-04-27T05:40:39.884Z,3.50
2019-04-27T05:43:09.186Z,2.70
2019-04-27T05:46:12.265Z,14.43
2019-04-27T05:48:39.366Z,7.70
2019-04-27T05:51:09.197Z,5.57
2019-04-27T05:53:39.436Z,7.40
2019-04-27T05:56:09.267Z,8.00
2019-04-27T05:58:39.205Z,8.90
2019-04-27T06:01:09.594Z,10.37
2019-04-27T06:03:39.666Z,8.73
2019-04-27T06:06:09.720Z,10.40
2019-04-27T06:08:39.275Z,13.17
2019-04-27T06:11:09.442Z,11.17
2019-04-27T06:13:39.217Z,9.03
2019-04-27T06:16:09.408Z,10.30
2019-04-27T06:18:39.207Z,11.40
2019-04-27T06:21:09.598Z,14.13
2019-04-27T06:23:39.054Z,9.13
2019-04-27T06:26:09.212Z,8.83
2019-04-27T06:28:39.583Z,8.90
2019-04-27T06:31:08.777Z,10.93
2019-04-27T06:33:38.984Z,13.40
2019-04-27T06:36:07.431Z,14.98
2019-04-27T06:38:35.847Z,10.33
2019-04-27T06:41:04.245Z,9.37
2019-04-27T06:43:32.712Z,10.30
2019-04-27T06:46:01.124Z,10.63
2019-04-27T06:48:29.702Z,9.93
2019-04-27T06:51:03.632Z,9.63
2019-04-27T06:53:29.161Z,6.53
2019-04-27T06:55:58.605Z,13.03
2019-04-27T06:58:27.043Z,8.53
2019-04-27T07:00:55.512Z,10.73
2019-04-27T07:03:23.918Z,10.57
2019-04-27T07:05:52.296Z,7.77
2019-04-27T07:08:20.703Z,9.30
2019-04-27T07:10:49.188Z,9.70
2019-04-27T07:13:19.428Z,11.23
2019-04-27T07:15:48.565Z,12.97
2019-04-27T07:18:18.630Z,7.33
2019-04-27T07:20:48.513Z,12.43
2019-04-27T07:23:18.664Z,10.93
2019-04-27T07:25:48.692Z,8.37
2019-04-27T07:28:18.955Z,8.53
2019-04-27T07:30:48.763Z,6.50
2019-04-27T07:33:18.638Z,5.43
2019-04-27T07:35:48.947Z,8.80
2019-04-27T07:38:19.085Z,11.90
2019-04-27T07:40:48.843Z,5.87
2019-04-27T07:43:29.271Z,5.77
2019-04-27T07:45:59.069Z,7.77
2019-04-27T07:48:28.545Z,3.83
2019-04-27T07:50:57.042Z,4.53
2019-04-27T07:53:25.433Z,3.50
2019-04-27T07:55:53.809Z,3.30
2019-04-27T07:58:22.418Z,5.67
2019-04-27T08:00:51.077Z,4.27
2019-04-27T08:03:19.725Z,4.60
2019-04-27T08:05:49.117Z,3.30
2019-04-27T08:08:19.002Z,3.50
2019-04-27T08:10:48.422Z,4.77
2019-04-27T08:13:19.380Z,4.80
2019-04-27T08:15:49.490Z,3.83
2019-04-27T08:18:18.978Z,4.80
2019-04-27T08:20:49.106Z,5.17
2019-04-27T08:23:19.404Z,3.30
2019-04-27T08:25:48.967Z,5.93
2019-04-27T08:28:24.726Z,1.60
2019-04-27T08:31:00.530Z,1.90
2019-04-27T08:33:29.050Z,1.83
2019-04-27T08:35:59.094Z,1.47
2019-04-27T08:38:28.940Z,1.90
2019-04-27T08:40:59.149Z,1.30
2019-04-27T08:43:28.985Z,2.27
2019-04-27T08:45:58.727Z,1.93
2019-04-27T08:48:36.020Z,1.23
2019-04-27T08:50:59.342Z,1.73
2019-04-27T08:53:29.718Z,1.40
2019-04-27T08:55:59.210Z,2.83
2019-04-27T08:58:28.639Z,2.27
2019-04-27T09:00:58.920Z,2.90
2019-04-27T09:03:29.290Z,5.13
2019-04-27T09:05:59.017Z,2.07
2019-04-27T09:08:29.261Z,1.12
2019-04-27T09:10:59.275Z,2.67
2019-04-27T09:13:32.104Z,0.80
2019-04-27T09:16:09.301Z,1.00
2019-04-27T09:18:38.957Z,2.97
2019-04-27T09:21:08.778Z,0.80
2019-04-27T09:23:38.977Z,1.60
2019-04-27T09:26:07.448Z,1.07
2019-04-27T09:28:35.839Z,1.03
2019-04-27T09:31:04.766Z,1.07
2019-04-27T09:33:33.280Z,2.00
2019-04-27T09:36:01.598Z,0.80
2019-04-27T09:38:29.985Z,0.90
2019-04-27T09:40:58.387Z,2.70
2019-04-27T09:43:26.782Z,2.03
2019-04-27T09:45:55.764Z,1.30
2019-04-27T09:48:25.927Z,4.60
2019-04-27T09:50:55.992Z,1.97
2019-04-27T09:53:24.464Z,3.83
2019-04-27T09:55:52.877Z,3.30
2019-04-27T09:58:21.255Z,1.10
2019-04-27T10:00:49.644Z,1.43
2019-04-27T10:03:18.063Z,8.67
2019-04-27T10:05:46.439Z,4.87
2019-04-27T10:08:16.845Z,3.53
2019-04-27T10:10:45.989Z,2.30
2019-04-27T10:13:15.091Z,4.47
2019-04-27T10:15:43.486Z,5.13
2019-04-27T10:18:11.906Z,3.90
2019-04-27T10:20:40.998Z,3.00
2019-04-27T10:23:09.554Z,4.70
2019-04-27T10:25:38.037Z,4.77
2019-04-27T10:28:06.880Z,2.73
2019-04-27T10:30:35.943Z,4.57
2019-04-27T10:33:05.984Z,2.63
2019-04-27T10:35:36.261Z,5.97
2019-04-27T10:38:04.779Z,3.90
2019-04-27T10:40:33.195Z,7.00
2019-04-27T10:43:01.578Z,4.83
2019-04-27T10:45:29.961Z,5.63
2019-04-27T10:47:58.453Z,7.73
2019-04-27T10:50:26.899Z,8.73
2019-04-27T10:52:56.780Z,8.90
2019-04-27T10:55:26.230Z,6.13
2019-04-27T10:57:54.631Z,6.63
2019-04-27T11:00:25.649Z,8.30
2019-04-27T11:02:54.284Z,9.23
2019-04-27T11:05:39.137Z,9.67
2019-04-27T11:08:07.933Z,7.23
2019-04-27T11:10:36.321Z,6.30
2019-04-27T11:13:06.232Z,10.47
2019-04-27T11:15:34.751Z,12.50
2019-04-27T11:18:03.152Z,10.20
2019-04-27T11:20:31.823Z,10.50
2019-04-27T11:23:07.167Z,8.17
2019-04-27T11:25:30.633Z,9.47
2019-04-27T11:27:59.113Z,11.43
2019-04-27T11:30:27.644Z,9.77
2019-04-27T11:32:58.917Z,7.90
2019-04-27T11:35:36.960Z,9.07
2019-04-27T11:38:05.692Z,10.83
2019-04-27T11:40:34.098Z,7.17
2019-04-27T11:43:02.747Z,6.30
2019-04-27T11:45:31.624Z,5.63
2019-04-27T11:48:00.022Z,9.47
2019-04-27T11:50:28.456Z,7.07
2019-04-27T11:52:56.900Z,9.83
2019-04-27T11:55:27.158Z,6.97
2019-04-27T11:57:56.007Z,6.93
2019-04-27T12:00:25.047Z,6.97
2019-04-27T12:02:53.444Z,6.63
2019-04-27T12:05:22.388Z,8.93
2019-04-27T12:07:50.785Z,10.87
2019-04-27T12:10:19.449Z,10.60
2019-04-27T12:12:47.873Z,8.07
2019-04-27T12:15:17.307Z,7.03
2019-04-27T12:17:46.207Z,8.07
2019-04-27T12:20:16.008Z,6.13
2019-04-27T12:22:45.263Z,7.53
2019-04-27T12:25:14.114Z,7.23
2019-04-27T12:27:59.590Z,5.40
2019-04-27T12:30:38.572Z,9.13
2019-04-27T12:33:06.992Z,7.00
2019-04-27T12:35:36.865Z,6.20
2019-04-27T12:38:05.931Z,8.13
2019-04-27T12:40:34.403Z,4.13
2019-04-27T12:43:02.933Z,4.67
2019-04-27T12:45:31.314Z,8.10
2019-04-27T12:47:59.736Z,8.37
2019-04-27T12:50:28.200Z,7.10
2019-04-27T12:52:58.231Z,6.23
2019-04-27T12:55:28.274Z,8.37
2019-04-27T12:57:58.673Z,13.37
2019-04-27T13:00:28.787Z,4.63
2019-04-27T13:02:57.726Z,8.77
2019-04-27T13:05:26.583Z,10.67
2019-04-27T13:07:54.978Z,9.45
2019-04-27T13:10:23.396Z,6.37
2019-04-27T13:12:51.813Z,7.83
2019-04-27T13:15:20.725Z,6.47
2019-04-27T13:17:49.497Z,4.17
2019-04-27T13:20:18.123Z,6.83
2019-04-27T13:22:46.580Z,9.27
2019-04-27T13:25:15.424Z,5.20
2019-04-27T13:27:43.812Z,4.93
2019-04-27T13:30:12.839Z,6.60
2019-04-27T13:32:41.270Z,3.77
2019-04-27T13:35:10.111Z,25.30
2019-04-27T13:37:42.974Z,3.27
2019-04-27T13:40:13.716Z,3.37
2019-04-27T13:42:43.752Z,2.63
2019-04-27T13:45:29.190Z,5.03
2019-04-27T13:48:11.283Z,3.10
2019-04-27T13:50:45.651Z,2.40
2019-04-27T13:53:16.643Z,2.63
2019-04-27T13:55:46.458Z,3.33
2019-04-27T13:58:15.144Z,3.93
2019-04-27T14:00:43.539Z,5.97
2019-04-27T14:03:11.933Z,3.33
2019-04-27T14:05:40.341Z,4.60
2019-04-27T14:08:09.165Z,5.20
2019-04-27T14:10:38.676Z,8.37
2019-04-27T14:13:10.689Z,11.95
2019-04-27T14:15:38.876Z,6.37
2019-04-27T14:18:08.355Z,2.50
2019-04-27T14:20:38.812Z,5.03
2019-04-27T14:23:18.830Z,7.20
2019-04-27T14:25:47.301Z,6.63
2019-04-27T14:28:15.688Z,8.30
2019-04-27T14:30:44.066Z,6.27
2019-04-27T14:33:12.752Z,7.87
2019-04-27T14:35:41.166Z,2.87
2019-04-27T14:38:09.566Z,8.20
2019-04-27T14:40:39.234Z,5.60
2019-04-27T14:43:08.496Z,8.47
2019-04-27T14:45:38.140Z,4.90
2019-04-27T14:48:08.266Z,6.73
2019-04-27T14:50:40.253Z,5.00
2019-04-27T14:53:08.701Z,4.87
2019-04-27T14:55:38.766Z,4.80
2019-04-27T14:58:08.716Z,2.93
2019-04-27T15:00:38.435Z,3.23
2019-04-27T15:03:07.063Z,1.67
2019-04-27T15:05:35.444Z,3.40
2019-04-27T15:08:06.480Z,6.03
2019-04-27T15:10:36.104Z,3.40
2019-04-27T15:13:06.550Z,2.37
2019-04-27T15:15:35.006Z,3.97
2019-04-27T15:18:05.414Z,2.93
2019-04-27T15:20:46.692Z,5.97
2019-04-27T15:23:15.199Z,9.10
2019-04-27T15:25:46.838Z,3.73
2019-04-27T15:28:15.408Z,2.73
2019-04-27T15:30:54.296Z,6.97
2019-04-27T15:33:40.419Z,2.93
2019-04-27T15:36:14.540Z,4.27
2019-04-27T15:38:53.929Z,4.83
2019-04-27T15:41:28.773Z,7.47
2019-04-27T15:43:59.581Z,9.40
2019-04-27T15:46:33.627Z,10.73
2019-04-27T15:48:58.937Z,7.80
2019-04-27T15:51:28.292Z,7.17
2019-04-27T15:53:58.676Z,8.37
2019-04-27T15:56:30.530Z,13.37
2019-04-27T15:58:59.897Z,9.03
2019-04-27T16:01:31.221Z,10.90
2019-04-27T16:03:58.314Z,13.67
2019-04-27T16:06:28.197Z,8.93
2019-04-27T16:08:56.626Z,10.13
2019-04-27T16:11:25.126Z,8.53
2019-04-27T16:13:53.576Z,9.07
2019-04-27T16:16:24.558Z,6.83
2019-04-27T16:18:52.179Z,8.90
2019-04-27T16:21:20.885Z,6.73
2019-04-27T16:23:49.280Z,10.83
2019-04-27T16:26:18.322Z,11.17
2019-04-27T16:28:50.271Z,7.70
2019-04-27T16:31:18.608Z,9.03
2019-04-27T16:33:49.377Z,9.47
2019-04-27T16:36:17.272Z,4.07
2019-04-27T16:38:59.451Z,9.07
2019-04-27T16:41:28.194Z,29.97
2019-04-27T16:43:58.184Z,6.47
2019-04-27T16:46:28.522Z,6.57
2019-04-27T16:48:59.226Z,7.27
2019-04-27T16:51:33.276Z,9.43
2019-04-27T16:53:58.444Z,8.93
2019-04-27T16:56:28.515Z,8.43
2019-04-27T16:59:05.415Z,9.83
2019-04-27T17:01:30.355Z,8.43
2019-04-27T17:03:59.810Z,6.67
2019-04-27T17:06:29.546Z,7.80
2019-04-27T17:09:05.630Z,9.37
2019-04-27T17:11:29.793Z,7.50
2019-04-27T17:14:05.860Z,7.13
2019-04-27T17:16:41.924Z,8.90
2019-04-27T17:19:14.747Z,7.43
2019-04-27T17:21:43.799Z,7.40
2019-04-27T17:24:12.516Z,5.93
2019-04-27T17:26:43.467Z,10.97
2019-04-27T17:29:16.474Z,10.88
2019-04-27T17:31:44.701Z,8.77
2019-04-27T17:34:13.123Z,8.67
2019-04-27T17:36:41.511Z,6.37
2019-04-27T17:39:10.733Z,8.65
2019-04-27T17:41:42.170Z,5.40
2019-04-27T17:44:12.753Z,6.07
2019-04-27T17:46:42.633Z,7.77
2019-04-27T17:49:09.587Z,8.87
2019-04-27T17:51:42.886Z,9.57
2019-04-27T17:54:11.402Z,9.80
2019-04-27T17:56:48.379Z,10.57
2019-04-27T17:59:10.399Z,11.53
2019-04-27T18:01:38.946Z,7.33
2019-04-27T18:04:10.410Z,8.03
2019-04-27T18:06:39.050Z,8.50
2019-04-27T18:09:09.738Z,7.73
2019-04-27T18:11:38.493Z,8.93
2019-04-27T18:14:09.831Z,6.17
2019-04-27T18:16:38.058Z,6.77
2019-04-27T18:19:11.565Z,9.57
2019-04-27T18:21:39.949Z,7.23
2019-04-27T18:24:09.969Z,8.00
2019-04-27T18:26:49.056Z,13.10
2019-04-27T18:29:10.154Z,9.13
2019-04-27T18:31:38.550Z,10.33
2019-04-27T18:34:08.595Z,6.67
2019-04-27T18:36:39.481Z,6.83
2019-04-27T18:39:12.275Z,6.87
2019-04-27T18:41:44.357Z,6.70
2019-04-27T18:44:11.063Z,8.73
2019-04-27T18:46:38.871Z,6.17
2019-04-27T18:49:11.693Z,10.13
2019-04-27T18:51:44.404Z,9.73
2019-04-27T18:54:12.794Z,10.13
2019-04-27T18:56:41.671Z,8.30
2019-04-27T18:59:10.177Z,9.13
2019-04-27T19:01:38.571Z,8.50
2019-04-27T19:04:08.656Z,10.33
2019-04-27T19:06:38.983Z,11.80
2019-04-27T19:09:08.319Z,5.73
2019-04-27T19:11:38.278Z,12.03
2019-04-27T19:14:08.311Z,5.00
2019-04-27T19:16:38.404Z,10.30
2019-04-27T19:19:08.703Z,12.60
2019-04-27T19:21:38.894Z,7.37
2019-04-27T19:24:08.866Z,10.47
2019-04-27T19:26:41.783Z,7.87
2019-04-27T19:29:11.849Z,11.30
2019-04-27T19:31:45.190Z,8.90
2019-04-27T19:34:13.790Z,8.53
2019-04-27T19:36:42.433Z,8.87
2019-04-27T19:39:14.026Z,7.63
2019-04-27T19:41:42.646Z,8.50
2019-04-27T19:44:11.032Z,9.08
2019-04-27T19:46:40.277Z,8.03
2019-04-27T19:49:08.868Z,12.40
2019-04-27T19:51:39.140Z,9.43
2019-04-27T19:54:09.062Z,8.00
2019-04-27T19:56:38.363Z,11.50
2019-04-27T19:59:18.767Z,6.50
2019-04-27T20:01:49.197Z,9.10
2019-04-27T20:04:21.877Z,7.67
2019-04-27T20:06:50.283Z,8.90
2019-04-27T20:09:22.945Z,9.13
2019-04-27T20:11:51.329Z,9.67
2019-04-27T20:14:20.887Z,7.67
2019-04-27T20:16:49.408Z,10.73
2019-04-27T20:19:17.799Z,9.93
2019-04-27T20:21:46.188Z,5.37
2019-04-27T20:24:14.607Z,9.90
2019-04-27T20:26:42.994Z,4.70
2019-04-27T20:29:11.908Z,5.27
2019-04-27T20:31:41.111Z,8.87
2019-04-27T20:34:09.615Z,7.70
2019-04-27T20:36:38.001Z,6.93
2019-04-27T20:39:07.140Z,8.47
2019-04-27T20:41:35.539Z,12.10
2019-04-27T20:44:04.291Z,6.37
2019-04-27T20:46:32.692Z,6.70
2019-04-27T20:49:02.714Z,6.20
2019-04-27T20:51:51.017Z,8.33
2019-04-27T20:54:21.127Z,6.70
2019-04-27T20:56:51.576Z,5.87
2019-04-27T20:59:19.686Z,6.67
2019-04-27T21:01:48.076Z,7.63
2019-04-27T21:04:18.106Z,7.07
2019-04-27T21:06:48.176Z,6.43
2019-04-27T21:09:17.720Z,6.43
2019-04-27T21:11:46.788Z,6.00
2019-04-27T21:14:15.352Z,5.73
2019-04-27T21:16:43.814Z,5.20
2019-04-27T21:19:12.187Z,4.87
2019-04-27T21:21:42.761Z,9.23
2019-04-27T21:24:11.551Z,7.43
2019-04-27T21:26:41.818Z,10.00
2019-04-27T21:29:11.663Z,12.50
2019-04-27T21:31:41.808Z,7.23
2019-04-27T21:34:10.313Z,14.47
2019-04-27T21:36:40.842Z,5.77
2019-04-27T21:39:09.031Z,7.80
2019-04-27T21:41:37.428Z,6.67
2019-04-27T21:44:05.832Z,8.10
2019-04-27T21:46:34.944Z,9.20
2019-04-27T21:49:03.375Z,10.20
2019-04-27T21:51:33.476Z,7.47
2019-04-27T21:54:03.495Z,5.67
2019-04-27T21:56:31.893Z,10.57
2019-04-27T21:59:01.017Z,6.07
2019-04-27T22:01:31.854Z,8.90
2019-04-27T22:04:01.034Z,7.47
2019-04-27T22:06:29.576Z,10.33
2019-04-27T22:08:57.992Z,6.63
2019-04-27T22:11:26.453Z,10.37
2019-04-27T22:13:54.859Z,8.67
2019-04-27T22:16:23.250Z,8.00
2019-04-27T22:18:52.054Z,11.67
2019-04-27T22:21:21.617Z,6.63
2019-04-27T22:23:51.920Z,7.77
2019-04-27T22:26:21.366Z,4.00
2019-04-27T22:28:52.077Z,5.73
2019-04-27T22:31:21.219Z,5.63
2019-04-27T22:33:52.553Z,6.43
2019-04-27T22:36:21.181Z,5.30
2019-04-27T22:38:51.499Z,6.70
2019-04-27T22:41:24.074Z,6.03
2019-04-27T22:43:54.124Z,9.00
2019-04-27T22:46:33.107Z,6.47
2019-04-27T22:49:01.878Z,7.00
2019-04-27T22:51:30.381Z,6.60
2019-04-27T22:53:58.773Z,6.23
2019-04-27T22:56:27.246Z,3.83
2019-04-27T22:59:04.058Z,5.03
2019-04-27T23:01:37.941Z,6.53
2019-04-27T23:04:07.966Z,8.13
2019-04-27T23:06:36.354Z,5.63
2019-04-27T23:09:05.719Z,8.37
2019-04-27T23:11:34.106Z,5.97
2019-04-27T23:14:02.493Z,5.30
2019-04-27T23:16:32.539Z,4.30
2019-04-27T23:19:01.842Z,4.47
2019-04-27T23:21:31.277Z,9.20
2019-04-27T23:24:01.718Z,5.27
2019-04-27T23:26:31.257Z,3.37
2019-04-27T23:29:11.048Z,4.83
2019-04-27T23:31:31.995Z,4.43
2019-04-27T23:34:01.896Z,3.07
2019-04-27T23:36:31.688Z,4.77
2019-04-27T23:39:00.849Z,5.87
2019-04-27T23:41:29.356Z,4.87
2019-04-27T23:43:57.736Z,8.13
2019-04-27T23:46:26.220Z,4.40
2019-04-27T23:48:54.605Z,4.23
2019-04-27T23:51:27.065Z,4.50
2019-04-27T23:53:55.469Z,4.27
2019-04-27T23:56:24.125Z,3.00
2019-04-27T23:58:52.530Z,5.07
